Time;durP1;ratioP1;P1;durP2;ratioP2;P2;SDS_P1;SDS_P2;PMS_P1;PMS_P2;Temp;Humidity;BMP_temperature;BMP_pressure;BME280_temperature;BME280_humidity;BME280_pressure;Samples;Min_cycle;Max_cycle;Signal;HPM_P1;HPM_P2
2022/04/14 00:00:34;;;;;;;17.55;10.32;;;;;;;11.11;100.00;101705.00;5015326;28;20195;-47
2022/04/14 00:03:00;;;;;;;16.30;10.27;;;;;;;11.08;100.00;101706.84;5015697;28;20595;-47
2022/04/14 00:05:25;;;;;;;18.92;11.15;;;;;;;10.90;100.00;101709.09;5033091;28;20200;-46
2022/04/14 00:07:51;;;;;;;22.75;11.77;;;;;;;10.95;100.00;101713.47;5033019;28;20254;-49
2022/04/14 00:10:16;;;;;;;24.15;10.95;;;;;;;10.91;100.00;101710.88;5032339;28;20199;-47
2022/04/14 00:12:42;;;;;;;20.45;10.98;;;;;;;11.03;100.00;101708.78;5033543;28;20230;-46
2022/04/14 00:15:10;;;;;;;17.23;10.32;;;;;;;10.99;100.00;101709.78;5033211;28;20627;-46
2022/04/14 00:17:36;;;;;;;18.90;10.27;;;;;;;10.89;100.00;101715.38;5032763;28;20200;-43
2022/04/14 00:20:07;;;;;;;19.15;10.32;;;;;;;10.91;100.00;101712.66;5032815;28;20226;-47
2022/04/14 00:22:34;;;;;;;16.85;9.98;;;;;;;10.94;100.00;101699.19;5033052;28;20414;-45
2022/04/14 00:24:59;;;;;;;18.40;9.93;;;;;;;10.95;100.00;101700.06;5033221;28;20188;-51
2022/04/14 00:27:25;;;;;;;16.38;10.43;;;;;;;10.97;100.00;101696.41;5032829;28;20631;-45
2022/04/14 00:29:50;;;;;;;21.52;10.70;;;;;;;10.92;100.00;101699.22;5032781;28;20596;-46
2022/04/14 00:32:16;;;;;;;16.20;9.93;;;;;;;10.98;100.00;101692.81;5032775;28;20172;-46
2022/04/14 00:34:41;;;;;;;17.08;10.10;;;;;;;10.96;100.00;101699.16;5032727;28;20670;-46
2022/04/14 00:37:07;;;;;;;16.73;10.55;;;;;;;10.89;100.00;101706.47;5015034;28;20217;-45
2022/04/14 00:39:32;;;;;;;11.38;8.98;;;;;;;10.87;100.00;101700.28;5032516;28;20658;-45
2022/04/14 00:41:58;;;;;;;18.52;10.48;;;;;;;10.88;100.00;101694.84;5032568;28;20175;-49
2022/04/14 00:44:23;;;;;;;18.05;10.35;;;;;;;10.91;100.00;101697.47;5032680;28;20168;-46
2022/04/14 00:46:49;;;;;;;14.13;9.90;;;;;;;10.93;100.00;101709.03;5032553;28;20207;-46
2022/04/14 00:49:14;;;;;;;16.30;10.00;;;;;;;10.97;100.00;101699.09;5032073;28;20219;-47
2022/04/14 00:51:40;;;;;;;18.45;11.00;;;;;;;10.90;100.00;101700.19;5032517;28;20298;-45
2022/04/14 00:54:05;;;;;;;14.68;10.25;;;;;;;10.99;100.00;101707.09;5032179;28;20645;-44
2022/04/14 00:56:30;;;;;;;15.75;8.93;;;;;;;10.98;100.00;101703.56;5032361;28;20164;-45
2022/04/14 00:58:56;;;;;;;18.02;10.23;;;;;;;10.86;100.00;101704.72;5031864;28;20162;-44
2022/04/14 01:01:22;;;;;;;16.70;10.10;;;;;;;10.77;100.00;101701.41;5032251;28;20275;-44
2022/04/14 01:03:48;;;;;;;16.05;9.88;;;;;;;10.83;100.00;101695.91;5014523;28;20654;-46
2022/04/14 01:06:15;;;;;;;14.85;9.70;;;;;;;10.93;100.00;101692.03;5032411;28;20230;-43
2022/04/14 01:08:42;;;;;;;16.58;10.55;;;;;;;10.81;100.00;101690.56;5031588;28;20343;-44
2022/04/14 01:11:27;;;;;;;17.52;10.63;;;;;;;10.72;100.00;101690.81;5031923;28;20591;-45
2022/04/14 01:13:53;;;;;;;16.35;9.80;;;;;;;10.78;100.00;101695.13;5014318;28;20172;-47
2022/04/14 01:16:18;;;;;;;19.90;11.65;;;;;;;10.58;100.00;101695.63;5032495;28;20207;-41
2022/04/14 01:18:43;;;;;;;21.50;11.77;;;;;;;10.48;100.00;101697.66;5031618;28;20545;-43
2022/04/14 01:21:09;;;;;;;21.33;12.55;;;;;;;10.55;100.00;101695.69;5032195;28;20168;-43
2022/04/14 01:23:44;;;;;;;18.65;11.38;;;;;;;10.66;100.00;101705.22;5032259;28;20184;-43
2022/04/14 01:26:13;;;;;;;20.80;11.82;;;;;;;10.55;100.00;101699.25;5031394;28;20219;-43
2022/04/14 01:28:38;;;;;;;16.08;10.88;;;;;;;10.50;100.00;101695.81;5031720;28;20200;-43
2022/04/14 01:31:04;;;;;;;22.83;12.68;;;;;;;10.52;100.00;101700.22;5031877;28;20241;-43
2022/04/14 01:33:29;;;;;;;19.52;11.90;;;;;;;10.56;100.00;101697.44;5030921;28;20176;-41
2022/04/14 01:35:54;;;;;;;19.63;12.35;;;;;;;10.38;100.00;101685.38;5050864;28;20262;-42
2022/04/14 01:38:20;;;;;;;21.23;12.05;;;;;;;10.46;100.00;101686.09;5050802;28;20921;-44
2022/04/14 01:40:45;;;;;;;20.90;12.10;;;;;;;10.44;100.00;101693.28;5051631;28;20207;-41
2022/04/14 01:43:11;;;;;;;21.13;11.40;;;;;;;10.44;100.00;101685.25;5046085;28;20184;-42
2022/04/14 01:45:37;;;;;;;14.70;10.95;;;;;;;10.55;100.00;101695.69;5057405;28;20184;-42
2022/04/14 01:48:02;;;;;;;16.40;11.35;;;;;;;10.55;100.00;101690.34;5069958;28;20202;-45
2022/04/14 01:50:28;;;;;;;21.35;12.43;;;;;;;10.53;100.00;101690.38;5051225;28;20694;-43
2022/04/14 01:52:53;;;;;;;18.50;11.73;;;;;;;10.33;100.00;101674.78;5051932;28;20167;-42
2022/04/14 01:55:19;;;;;;;17.85;11.27;;;;;;;10.35;100.00;101688.16;5051133;28;20171;-43
2022/04/14 01:57:45;;;;;;;20.52;11.98;;;;;;;10.27;100.00;101686.47;5051234;28;20203;-40
2022/04/14 02:00:13;;;;;;;16.38;11.27;;;;;;;10.30;100.00;101685.56;5050892;28;20243;-41
2022/04/14 02:02:39;;;;;;;18.50;11.85;;;;;;;10.33;100.00;101679.25;5051619;28;20175;-41
2022/04/14 02:05:05;;;;;;;17.10;12.23;;;;;;;10.34;100.00;101683.69;5051563;28;20566;-43
2022/04/14 02:07:30;;;;;;;16.95;12.38;;;;;;;10.22;100.00;101671.44;5051221;28;20191;-43
2022/04/14 02:09:56;;;;;;;20.63;12.30;;;;;;;10.24;100.00;101683.88;5051181;28;20198;-43
2022/04/14 02:12:21;;;;;;;21.63;12.65;;;;;;;10.08;100.00;101674.44;5051219;28;20268;-43
2022/04/14 02:14:47;;;;;;;24.00;13.30;;;;;;;10.13;100.00;101674.34;5051450;28;20171;-46
2022/04/14 02:17:12;;;;;;;20.10;13.05;;;;;;;10.11;100.00;101677.91;5050726;28;20584;-43
2022/04/14 02:19:38;;;;;;;18.67;12.75;;;;;;;10.03;100.00;101679.00;5050818;28;20268;-43
2022/04/14 02:22:03;;;;;;;14.85;11.80;;;;;;;10.13;100.00;101680.56;5051170;28;20177;-48
2022/04/14 02:24:29;;;;;;;24.10;13.95;;;;;;;10.08;100.00;101675.31;5050633;28;20274;-45
2022/04/14 02:26:54;;;;;;;24.13;13.40;;;;;;;10.07;100.00;101680.69;5050999;28;20187;-44
2022/04/14 02:29:20;;;;;;;20.38;13.90;;;;;;;9.99;100.00;101682.66;5049626;28;20561;-46
2022/04/14 02:31:46;;;;;;;18.92;13.88;;;;;;;10.09;100.00;101689.56;5051265;28;20193;-43
2022/04/14 02:34:11;;;;;;;22.85;15.07;;;;;;;10.05;100.00;101691.44;5015981;28;20640;-44
2022/04/14 02:36:36;;;;;;;20.15;13.68;;;;;;;10.13;100.00;101685.91;5050572;28;20183;-44
2022/04/14 02:39:03;;;;;;;23.23;15.10;;;;;;;10.07;100.00;101680.69;5050405;28;20626;-45
2022/04/14 02:41:28;;;;;;;21.02;14.13;;;;;;;10.07;100.00;101686.06;5050435;28;20176;-45
2022/04/14 02:43:53;;;;;;;26.73;15.48;;;;;;;9.96;100.00;101683.59;5051029;28;20220;-44
2022/04/14 02:46:19;;;;;;;20.52;14.45;;;;;;;10.03;100.00;101681.69;5051227;28;20206;-44
2022/04/14 02:48:44;;;;;;;24.05;14.93;;;;;;;10.05;100.00;101688.75;5050686;28;20211;-46
2022/04/14 02:51:10;;;;;;;24.58;16.13;;;;;;;10.02;100.00;101678.13;5050113;28;20175;-44
2022/04/14 02:53:35;;;;;;;19.88;13.68;;;;;;;10.04;100.00;101675.44;5050341;28;20171;-45
2022/04/14 02:56:01;;;;;;;21.08;15.40;;;;;;;9.98;100.00;101667.53;5050400;28;20260;-46
2022/04/14 02:58:26;;;;;;;29.60;16.77;;;;;;;9.99;100.00;101678.22;5049880;28;20669;-44
2022/04/14 03:00:51;;;;;;;22.67;16.25;;;;;;;9.92;100.00;101673.00;5050660;28;20259;-45
2022/04/14 03:03:17;;;;;;;27.98;16.02;;;;;;;9.88;100.00;101682.88;5051058;28;20217;-46
2022/04/14 03:05:43;;;;;;;21.15;15.45;;;;;;;9.79;100.00;101675.06;5050902;28;20179;-44
2022/04/14 03:08:08;;;;;;;27.10;16.70;;;;;;;9.82;100.00;101664.31;5050825;28;20420;-45
2022/04/14 03:10:34;;;;;;;22.85;16.23;;;;;;;9.81;100.00;101679.47;5050608;28;20747;-45
2022/04/14 03:12:59;;;;;;;20.92;16.60;;;;;;;9.85;100.00;101678.50;5049827;28;20248;-46
2022/04/14 03:15:25;;;;;;;32.72;18.80;;;;;;;9.72;100.00;101679.66;5050821;28;20178;-45
2022/04/14 03:17:50;;;;;;;28.75;17.85;;;;;;;9.71;100.00;101677.91;5050702;28;20191;-43
2022/04/14 03:20:16;;;;;;;21.33;17.25;;;;;;;9.73;100.00;101668.06;5032951;28;20195;-46
2022/04/14 03:22:42;;;;;;;26.27;18.35;;;;;;;9.75;100.00;101673.38;5050679;28;20175;-46
2022/04/14 03:25:09;;;;;;;33.13;20.45;;;;;;;9.65;100.00;101670.00;5050638;28;20168;-46
2022/04/14 03:27:37;;;;;;;33.22;21.02;;;;;;;9.64;100.00;101660.22;5050708;28;20237;-44
2022/04/14 03:30:06;;;;;;;30.70;20.17;;;;;;;9.74;100.00;101664.47;5050277;28;20306;-44
2022/04/14 03:32:32;;;;;;;32.97;22.27;;;;;;;9.77;100.00;101669.72;5050782;28;20626;-46
2022/04/14 03:35:04;;;;;;;37.25;24.20;;;;;;;9.64;100.00;101665.56;5050281;28;20262;-46
2022/04/14 03:37:30;;;;;;;39.65;24.52;;;;;;;9.66;100.00;101671.75;5050285;28;20187;-45
2022/04/14 03:39:55;;;;;;;40.78;26.60;;;;;;;9.61;100.00;101671.88;5050227;28;20638;-44
2022/04/14 03:42:21;;;;;;;45.80;26.42;;;;;;;9.56;100.00;101668.41;5050234;28;20236;-44
2022/04/14 03:44:46;;;;;;;42.75;28.08;;;;;;;9.52;100.00;101672.06;5051051;28;20627;-47
2022/04/14 03:47:11;;;;;;;46.50;26.58;;;;;;;9.59;100.00;101662.09;5054201;28;20186;-42
2022/04/14 03:49:37;;;;;;;50.53;29.75;;;;;;;9.54;100.00;101667.56;5051399;28;20689;-48
2022/04/14 03:52:03;;;;;;;43.53;29.90;;;;;;;9.49;100.00;101662.31;5069770;28;20169;-42
2022/04/14 03:54:28;;;;;;;51.80;31.05;;;;;;;9.51;100.00;101664.06;5069567;28;20174;-42
2022/04/14 03:56:54;;;;;;;45.72;28.73;;;;;;;9.50;100.00;101671.19;5069756;28;20626;-41
2022/04/14 03:59:20;;;;;;;45.85;31.27;;;;;;;9.58;100.00;101668.38;5069623;28;20163;-44
2022/04/14 04:01:45;;;;;;;51.90;31.77;;;;;;;9.59;100.00;101667.47;5072211;28;20618;-43
2022/04/14 04:04:10;;;;;;;54.72;33.20;;;;;;;9.55;100.00;101671.09;5072956;28;20182;-50
2022/04/14 04:06:36;;;;;;;57.13;34.92;;;;;;;9.56;100.00;101668.41;5073304;28;20502;-42
2022/04/14 04:09:01;;;;;;;59.85;34.35;;;;;;;9.61;100.00;101661.16;5073363;28;20348;-41
2022/04/14 04:11:27;;;;;;;56.67;34.83;;;;;;;9.61;100.00;101657.59;5072950;28;20174;-46
2022/04/14 04:13:52;;;;;;;62.95;37.33;;;;;;;9.56;100.00;101664.88;5073530;28;20155;-44
2022/04/14 04:16:17;;;;;;;64.50;36.85;;;;;;;9.53;100.00;101656.88;5073430;28;20508;-43
2022/04/14 04:18:43;;;;;;;66.88;36.78;;;;;;;9.52;100.00;101660.47;5054865;28;20291;-42
2022/04/14 04:21:08;;;;;;;60.50;37.60;;;;;;;9.59;100.00;101662.97;5072333;28;20253;-41
2022/04/14 04:23:35;;;;;;;62.90;37.78;;;;;;;9.63;100.00;101661.13;5071950;28;20637;-44
2022/04/14 04:26:00;;;;;;;62.50;39.58;;;;;;;9.58;100.00;101665.72;5072309;28;20262;-42
2022/04/14 04:28:30;;;;;;;66.28;41.70;;;;;;;9.58;100.00;101657.69;5072161;28;20678;-42
2022/04/14 04:30:59;;;;;;;71.18;41.25;;;;;;;9.57;100.00;101658.59;5071802;28;20519;-43
2022/04/14 04:33:24;;;;;;;69.82;39.92;;;;;;;9.56;100.00;101647.00;5072005;28;20163;-42
2022/04/14 04:35:50;;;;;;;66.30;40.85;;;;;;;9.61;100.00;101653.13;5071787;28;20277;-45
2022/04/14 04:38:15;;;;;;;74.38;41.88;;;;;;;9.58;100.00;101655.00;5071643;28;20202;-42
2022/04/14 04:40:41;;;;;;;69.30;42.85;;;;;;;9.58;100.00;101655.00;5072142;28;20170;-43
2022/04/14 04:43:06;;;;;;;78.25;43.95;;;;;;;9.58;100.00;101641.63;5071541;28;20190;-43
2022/04/14 04:45:32;;;;;;;77.53;42.40;;;;;;;9.56;100.00;101635.44;5072100;28;20163;-43
2022/04/14 04:47:57;;;;;;;72.03;42.00;;;;;;;9.65;100.00;101636.09;5071395;28;20255;-43
2022/04/14 04:50:22;;;;;;;78.10;42.60;;;;;;;9.60;100.00;101639.78;5032273;28;20227;-41
2022/04/14 04:52:48;;;;;;;69.85;41.45;;;;;;;9.61;100.00;101638.88;5031585;28;20516;-43
2022/04/14 04:55:13;;;;;;;75.35;43.97;;;;;;;9.66;100.00;101648.59;5013452;28;20262;-43
2022/04/14 04:57:39;;;;;;;75.22;43.55;;;;;;;9.63;100.00;101647.75;5031193;28;20191;-42
2022/04/14 05:00:04;;;;;;;75.93;42.28;;;;;;;9.63;100.00;101647.75;5031462;28;20230;-44
2022/04/14 05:02:30;;;;;;;84.20;43.53;;;;;;;9.63;100.00;101645.09;5031388;28;20172;-42
2022/04/14 05:04:55;;;;;;;84.57;44.97;;;;;;;9.62;100.00;101641.53;5031621;28;20510;-43
2022/04/14 05:07:21;;;;;;;74.35;41.47;;;;;;;9.66;100.00;101653.03;5031158;28;20220;-43
2022/04/14 05:09:46;;;;;;;69.70;39.83;;;;;;;9.68;100.00;101651.22;5031334;28;20241;-43
2022/04/14 05:12:11;;;;;;;80.75;41.28;;;;;;;9.68;100.00;101667.25;5030640;28;20599;-43
2022/04/14 05:14:37;;;;;;;73.75;41.33;;;;;;;9.68;100.00;101661.91;5031125;28;20259;-44
2022/04/14 05:17:02;;;;;;;67.50;39.67;;;;;;;9.79;100.00;101672.38;5013638;28;20725;-43
2022/04/14 05:19:28;;;;;;;75.75;41.83;;;;;;;9.72;100.00;101662.75;5030412;28;20613;-43
2022/04/14 05:21:53;;;;;;;72.78;39.92;;;;;;;9.81;100.00;101665.22;5013850;28;20417;-44
2022/04/14 05:24:18;;;;;;;68.03;38.92;;;;;;;9.87;100.00;101675.78;5030993;28;20169;-43
2022/04/14 05:26:44;;;;;;;69.50;41.08;;;;;;;9.85;100.00;101669.59;5031283;28;20180;-42
2022/04/14 05:29:09;;;;;;;69.75;40.17;;;;;;;9.81;100.00;101676.78;5030939;28;20260;-43
2022/04/14 05:31:35;;;;;;;69.82;40.33;;;;;;;9.87;100.00;101673.09;5013446;28;20203;-43
2022/04/14 05:34:00;;;;;;;71.20;41.28;;;;;;;9.84;100.00;101679.41;5031133;28;20164;-43
2022/04/14 05:36:26;;;;;;;72.10;40.28;;;;;;;9.80;100.00;101688.41;5031446;28;20564;-42
2022/04/14 05:38:51;;;;;;;70.72;41.65;;;;;;;9.82;100.00;101683.03;5030518;28;20172;-43
2022/04/14 05:41:17;;;;;;;66.30;40.55;;;;;;;9.90;100.00;101681.97;5031458;28;20195;-41
2022/04/14 05:43:42;;;;;;;70.32;40.45;;;;;;;9.93;100.00;101686.38;5030868;28;20164;-44
2022/04/14 05:46:07;;;;;;;68.60;40.28;;;;;;;9.98;100.00;101683.59;5030982;28;20198;-44
2022/04/14 05:48:33;;;;;;;65.07;41.22;;;;;;;10.03;100.00;101677.19;5035376;28;20183;-42
2022/04/14 05:50:58;;;;;;;67.82;40.50;;;;;;;10.06;100.00;101686.97;5050909;28;20160;-44
2022/04/14 05:53:26;;;;;;;65.20;39.47;;;;;;;10.12;100.00;101681.47;5033300;28;20163;-44
2022/04/14 05:55:52;;;;;;;66.18;40.35;;;;;;;10.02;100.00;101677.25;5051146;28;20175;-43
2022/04/14 05:58:17;;;;;;;61.88;39.17;;;;;;;10.20;100.00;101679.50;5051189;28;20187;-41
2022/04/14 06:00:43;;;;;;;61.13;39.63;;;;;;;10.17;100.00;101684.94;5051020;28;20545;-42
2022/04/14 06:03:09;;;;;;;65.70;40.35;;;;;;;10.13;100.00;101680.56;5061013;28;20181;-42
2022/04/14 06:05:35;;;;;;;62.88;40.22;;;;;;;10.18;100.00;101683.13;5070910;28;20170;-43
2022/04/14 06:08:00;;;;;;;60.92;38.78;;;;;;;10.23;100.00;101682.13;5070201;28;20201;-41
2022/04/14 06:10:27;;;;;;;57.70;39.50;;;;;;;10.14;100.00;101690.34;5070574;28;20535;-43
2022/04/14 06:12:56;;;;;;;67.30;41.58;;;;;;;10.11;100.00;101685.06;5070727;28;20197;-42
2022/04/14 06:15:22;;;;;;;63.78;39.97;;;;;;;10.16;100.00;101684.97;5070676;28;20550;-41
2022/04/14 06:17:49;;;;;;;63.40;39.92;;;;;;;10.15;100.00;101681.41;5052835;28;20193;-43
2022/04/14 06:20:14;;;;;;;65.03;40.10;;;;;;;10.21;100.00;101683.06;5070177;28;20249;-41
2022/04/14 06:22:42;;;;;;;62.03;39.92;;;;;;;10.17;100.00;101676.03;5070803;28;20258;-42
2022/04/14 06:25:12;;;;;;;63.03;39.58;;;;;;;10.23;100.00;101682.13;5070233;28;20499;-43
2022/04/14 06:27:45;;;;;;;59.25;40.55;;;;;;;10.26;100.00;101682.03;5070583;28;20260;-42
2022/04/14 06:30:14;;;;;;;54.03;37.55;;;;;;;10.24;100.00;101694.59;5070820;28;20236;-44
2022/04/14 06:32:40;;;;;;;59.17;38.10;;;;;;;10.27;100.00;101699.84;5070367;28;20188;-42
2022/04/14 06:35:08;;;;;;;61.05;39.97;;;;;;;10.31;100.00;101698.03;5069899;28;20194;-42
2022/04/14 06:37:34;;;;;;;57.42;39.80;;;;;;;10.32;100.00;101699.81;5069343;28;20199;-45
2022/04/14 06:40:00;;;;;;;59.20;39.20;;;;;;;10.33;100.00;101698.00;5068975;28;20171;-44
2022/04/14 06:42:25;;;;;;;54.78;37.88;;;;;;;10.20;100.00;101698.25;5045346;28;20268;-44
2022/04/14 06:44:51;;;;;;;50.38;35.60;;;;;;;10.31;100.00;101703.38;5049543;28;20203;-42
2022/04/14 06:47:16;;;;;;;52.40;36.78;;;;;;;10.23;100.00;101703.56;5063600;28;20196;-43
2022/04/14 06:49:42;;;;;;;59.92;38.35;;;;;;;10.33;100.00;101706.03;5036121;28;20199;-44
2022/04/14 06:52:08;;;;;;;53.30;37.92;;;;;;;10.29;100.00;101706.09;5046691;28;20171;-43
2022/04/14 06:54:34;;;;;;;58.55;38.90;;;;;;;10.29;100.00;101705.22;5046044;28;20171;-43
2022/04/14 06:56:59;;;;;;;61.47;38.75;;;;;;;10.19;100.00;101715.25;5053979;28;20271;-43
2022/04/14 06:59:25;;;;;;;65.22;41.70;;;;;;;10.22;100.00;101712.50;5027509;28;20194;-44
2022/04/14 07:01:50;;;;;;;62.30;39.33;;;;;;;10.13;100.00;101710.03;5053162;28;20178;-42
2022/04/14 07:04:15;;;;;;;59.63;38.53;;;;;;;10.21;100.00;101721.44;5048252;28;20205;-45
2022/04/14 07:06:41;;;;;;;54.78;36.97;;;;;;;10.27;100.00;101718.59;5048259;28;20543;-46
2022/04/14 07:09:06;;;;;;;59.30;37.58;;;;;;;10.27;100.00;101721.28;5047952;28;20222;-45
2022/04/14 07:11:32;;;;;;;56.63;37.17;;;;;;;10.36;100.00;101725.59;5048390;28;20557;-44
2022/04/14 07:13:58;;;;;;;57.00;38.83;;;;;;;10.30;100.00;101718.59;5048344;28;20194;-43
2022/04/14 07:16:25;;;;;;;60.90;39.90;;;;;;;10.34;100.00;101723.88;5049119;28;20171;-45
2022/04/14 07:18:50;;;;;;;59.13;40.88;;;;;;;10.30;100.00;101731.13;5049481;28;20229;-44
2022/04/14 07:21:15;;;;;;;59.28;41.20;;;;;;;10.31;100.00;101728.38;5052218;22;20219;-48
2022/04/14 07:23:41;;;;;;;63.53;42.92;;;;;;;10.31;100.00;101724.81;5016769;28;21573;-48
2022/04/14 07:26:06;;;;;;;65.97;43.30;;;;;;;10.48;100.00;101724.44;5028973;28;20547;-47
2022/04/14 07:28:31;;;;;;;63.97;43.20;;;;;;;10.47;100.00;101728.94;5029815;28;20287;-46
2022/04/14 07:30:57;;;;;;;64.05;41.33;;;;;;;10.46;100.00;101718.22;5029787;28;20654;-47
2022/04/14 07:33:22;;;;;;;61.83;42.08;;;;;;;10.45;100.00;101708.41;5028371;28;20570;-47
2022/04/14 07:35:50;;;;;;;66.28;42.33;;;;;;;10.65;100.00;101710.66;5030481;28;20172;-47
2022/04/14 07:38:16;;;;;;;61.08;40.53;;;;;;;10.67;100.00;101717.72;5031853;28;20249;-45
2022/04/14 07:40:41;;;;;;;63.53;39.90;;;;;;;10.84;100.00;101717.28;5033809;28;20631;-46
2022/04/14 07:43:06;;;;;;;57.60;41.20;;;;;;;10.89;100.00;101715.38;5033636;28;20267;-50
2022/04/14 07:45:32;;;;;;;55.40;39.05;;;;;;;11.06;100.00;101714.97;5033298;28;20222;-45
2022/04/14 07:47:57;;;;;;;54.75;38.47;;;;;;;11.19;100.00;101715.50;5033622;28;20199;-45
2022/04/14 07:50:24;;;;;;;51.17;37.38;;;;;;;11.23;100.00;101711.81;5032744;28;20218;-48
2022/04/14 07:52:59;;;;;;;46.90;35.38;;;;;;;11.47;99.85;101706.72;5033329;28;20171;-45
2022/04/14 07:55:27;;;;;;;50.97;35.72;;;;;;;11.31;99.24;101715.19;5033131;28;20309;-44
2022/04/14 07:57:54;;;;;;;46.25;35.08;;;;;;;11.47;98.53;101722.81;5033182;28;20188;-46
2022/04/14 08:00:20;;;;;;;52.17;35.65;;;;;;;11.44;97.15;101718.41;5033062;28;20191;-45
2022/04/14 08:02:58;;;;;;;46.88;32.63;;;;;;;11.44;96.56;101725.59;5033253;28;20168;-45
2022/04/14 08:05:33;;;;;;;40.85;29.92;;;;;;;11.23;96.10;101719.00;5033030;28;20250;-48
2022/04/14 08:08:02;;;;;;;42.60;31.10;;;;;;;11.31;96.13;101714.31;5032631;28;20200;-45
2022/04/14 08:10:28;;;;;;;42.08;30.02;;;;;;;11.57;95.43;101713.59;5031351;28;20261;-47
2022/04/14 08:12:54;;;;;;;42.45;31.00;;;;;;;11.50;94.85;101715.56;5031415;28;20262;-49
2022/04/14 08:15:20;;;;;;;42.45;29.55;;;;;;;11.70;95.02;101716.81;5033676;28;20318;-49
2022/04/14 08:17:46;;;;;;;42.25;31.15;;;;;;;11.94;93.88;101720.63;5032598;28;20192;-45
2022/04/14 08:20:14;;;;;;;37.90;28.80;;;;;;;11.87;93.45;101717.19;5032379;28;20187;-45
2022/04/14 08:22:51;;;;;;;39.42;28.55;;;;;;;11.85;92.16;101723.50;5030379;28;20215;-45
2022/04/14 08:25:22;;;;;;;40.13;29.30;;;;;;;11.92;92.16;101719.78;5032271;28;20167;-47
2022/04/14 08:27:49;;;;;;;42.03;31.35;;;;;;;12.12;92.08;101717.38;5032384;28;20196;-43
2022/04/14 08:30:16;;;;;;;42.85;30.13;;;;;;;12.20;90.57;101705.50;5032239;28;20192;-44
2022/04/14 08:32:43;;;;;;;34.90;25.83;;;;;;;12.52;89.35;101715.22;5032548;28;20168;-47
2022/04/14 08:35:09;;;;;;;42.85;29.38;;;;;;;12.69;89.61;101712.00;5031160;28;20654;-46
2022/04/14 08:37:35;;;;;;;36.95;27.42;;;;;;;12.70;88.25;101703.91;5032071;28;20244;-45
2022/04/14 08:40:01;;;;;;;37.13;27.10;;;;;;;12.84;87.28;101699.88;5032317;28;20203;-44
2022/04/14 08:42:32;;;;;;;31.35;24.25;;;;;;;13.29;85.54;101694.72;5032091;28;20178;-44
2022/04/14 08:45:03;;;;;;;31.30;24.08;;;;;;;13.13;85.37;101691.66;5032462;28;20188;-44
2022/04/14 08:47:29;;;;;;;31.77;24.40;;;;;;;13.10;84.52;101680.13;5030799;28;20250;-44
2022/04/14 08:49:56;;;;;;;32.03;24.42;;;;;;;13.39;83.75;101684.50;5032058;28;20238;-43
2022/04/14 08:52:22;;;;;;;36.47;27.35;;;;;;;13.39;84.22;101684.50;5032172;28;20180;-44
2022/04/14 08:54:49;;;;;;;54.35;30.60;;;;;;;13.91;84.21;101692.47;5031740;28;20229;-43
2022/04/14 08:57:15;;;;;;;40.60;28.48;;;;;;;14.13;82.86;101682.59;5032370;28;20252;-44
2022/04/14 08:59:44;;;;;;;39.97;29.13;;;;;;;14.45;79.79;101676.84;5031498;28;20164;-42
2022/04/14 09:02:15;;;;;;;36.03;26.83;;;;;;;14.93;79.49;101681.16;5031767;28;20255;-50
2022/04/14 09:04:44;;;;;;;31.25;26.10;;;;;;;15.16;76.99;101678.34;5032203;28;20171;-45
2022/04/14 09:07:13;;;;;;;31.27;24.98;;;;;;;15.16;73.95;101682.88;5030531;28;20734;-44
2022/04/14 09:09:39;;;;;;;28.90;23.08;;;;;;;15.05;75.96;101683.34;5031925;28;20204;-45
2022/04/14 09:12:06;;;;;;;32.35;25.10;;;;;;;14.72;74.33;101688.38;5031867;28;20468;-45
2022/04/14 09:14:34;;;;;;;27.63;22.98;;;;;;;15.41;75.37;101679.94;5031853;28;20171;-50
2022/04/14 09:17:02;;;;;;;24.90;21.38;;;;;;;15.31;73.30;101687.59;5031623;28;20610;-46
2022/04/14 09:19:30;;;;;;;22.83;20.40;;;;;;;15.52;70.12;101676.78;5031687;28;20193;-44
2022/04/14 09:22:07;;;;;;;23.67;18.75;;;;;;;15.02;71.21;101686.16;5030333;28;20204;-49
2022/04/14 09:24:47;;;;;;;20.35;16.45;;;;;;;15.81;70.92;101676.34;5031733;28;20214;-44
2022/04/14 09:27:29;;;;;;;20.02;14.75;;;;;;;15.81;71.58;101678.19;5031791;28;20611;-44
2022/04/14 09:29:56;;;;;;;19.58;15.73;;;;;;;15.85;67.64;101666.25;5031468;28;20188;-49
2022/04/14 09:32:35;;;;;;;16.33;14.10;;;;;;;15.91;70.55;101659.69;5031292;28;20195;-44
2022/04/14 09:35:04;;;;;;;17.50;14.93;;;;;;;15.93;68.81;101661.38;5031488;28;20230;-45
2022/04/14 09:37:30;;;;;;;16.80;14.50;;;;;;;15.84;68.62;101664.53;5031043;28;20203;-45
2022/04/14 09:39:57;;;;;;;16.02;13.52;;;;;;;16.42;68.33;101660.81;5031419;28;20174;-45
2022/04/14 09:42:31;;;;;;;17.30;13.38;;;;;;;16.69;67.94;101651.34;5031539;28;20168;-46
2022/04/14 09:45:34;;;;;;;13.27;11.75;;;;;;;16.58;67.51;101663.66;5031306;28;20168;-44
2022/04/14 09:48:04;;;;;;;13.82;11.07;;;;;;;16.39;66.44;101648.31;5028727;28;20196;-44
2022/04/14 09:50:35;;;;;;;13.63;11.25;;;;;;;16.10;67.93;101655.19;5030435;28;20215;-44
2022/04/14 09:53:05;;;;;;;12.15;10.85;;;;;;;16.38;67.49;101651.13;5030732;28;20176;-48
2022/04/14 09:55:31;;;;;;;12.85;10.60;;;;;;;16.45;66.16;101657.97;5030902;28;20650;-44
2022/04/14 09:58:24;;;;;;;13.40;11.63;;;;;;;16.70;67.20;101660.31;5031147;28;20195;-43
2022/04/14 10:00:50;;;;;;;14.07;11.35;;;;;;;16.39;66.50;101663.69;5030494;28;20717;-47
2022/04/14 10:03:42;;;;;;;16.52;12.63;;;;;;;16.23;67.18;101660.88;5030819;28;20545;-47
2022/04/14 10:06:08;;;;;;;20.05;13.07;;;;;;;15.90;68.50;101658.84;5031098;28;20192;-45
2022/04/14 10:08:51;;;;;;;17.67;12.70;;;;;;;16.25;68.52;101659.84;5030433;28;20283;-43
2022/04/14 10:11:28;;;;;;;17.35;13.25;;;;;;;15.82;68.38;101651.06;5030765;28;20218;-43
2022/04/14 10:13:53;;;;;;;16.50;13.05;;;;;;;15.76;69.32;101661.28;5029271;28;20250;-44
2022/04/14 10:16:21;;;;;;;14.57;12.65;;;;;;;16.21;69.23;101655.53;5030635;28;20310;-45
2022/04/14 10:18:47;;;;;;;15.48;12.77;;;;;;;16.24;68.66;101657.19;5029355;28;20773;-45
2022/04/14 10:21:14;;;;;;;14.05;11.70;;;;;;;15.85;68.69;101660.84;5030615;28;20306;-45
2022/04/14 10:23:40;;;;;;;13.07;9.98;;;;;;;15.72;67.67;101654.28;5029062;28;20568;-45
2022/04/14 10:26:07;;;;;;;13.20;9.23;;;;;;;15.85;68.10;101656.34;5030348;28;20168;-50
2022/04/14 10:28:35;;;;;;;12.50;9.10;;;;;;;15.86;67.01;101654.53;5030175;28;20184;-45
2022/04/14 10:31:01;;;;;;;11.05;9.35;;;;;;;15.68;67.91;101652.63;5028905;28;20291;-49
2022/04/14 10:33:28;;;;;;;10.65;8.63;;;;;;;16.18;68.34;101673.72;5029920;28;20172;-48
2022/04/14 10:35:53;;;;;;;9.90;8.85;;;;;;;16.29;66.52;101660.56;5030210;28;20168;-45
2022/04/14 10:38:29;;;;;;;10.63;8.35;;;;;;;16.19;66.22;101651.16;5030027;28;20557;-49
2022/04/14 10:40:59;;;;;;;12.80;9.00;;;;;;;16.29;66.03;101657.88;5030120;28;20179;-48
2022/04/14 10:43:26;;;;;;;9.68;8.55;;;;;;;16.18;65.98;101663.78;5030167;28;20288;-46
2022/04/14 10:45:57;;;;;;;11.55;8.65;;;;;;;16.94;64.51;101646.53;5029902;28;20328;-45
2022/04/14 10:48:31;;;;;;;12.20;9.13;;;;;;;17.11;64.77;101649.22;5030089;28;20271;-45
2022/04/14 10:51:20;;;;;;;10.43;8.20;;;;;;;16.63;64.24;101643.53;5029781;28;20195;-46
2022/04/14 10:53:50;;;;;;;9.35;7.80;;;;;;;16.11;66.10;101646.09;5028665;28;20523;-47
2022/04/14 10:56:34;;;;;;;9.32;8.43;;;;;;;16.42;64.79;101641.88;5029928;28;20461;-46
2022/04/14 10:59:04;;;;;;;8.85;7.70;;;;;;;16.17;65.64;101651.22;5029919;28;20176;-45
2022/04/14 11:01:47;;;;;;;10.73;8.55;;;;;;;16.16;66.49;101659.38;5030433;28;20571;-50
2022/04/14 11:04:31;;;;;;;12.27;8.73;;;;;;;15.64;67.38;101652.78;5029763;28;20175;-43
2022/04/14 11:07:06;;;;;;;10.15;8.82;;;;;;;15.37;69.08;101660.34;5029891;28;20188;-45